AA2665 / N388AA 7700 Squawk Report (13th of November, 2018)

Aircraft B763 Reg No. N388AA Age 24 years old
Model 767 Jet engines 2 First flight 10-12-94
Registered 13-01-95 Rollout N/A Delivered 13-01-95
Construction No. 27448 Line No. 0563 Series 323(ER)
ADSHEX A47903 Airline name American Airlines Owner N/A
Airfield based Dallas-Fort Worth~TX~N First tracked 2011-04-02 22:11:02
Time Lat Lon Altitude Heading Speed Vertical Rate
2018-11-13 16:31:17 GMT 39.874512 -75.206253 600 255 139 -768
2018-11-13 16:31:10 GMT 39.875610 -75.200996 700 256 140 -704
2018-11-13 16:30:58 GMT 39.877670 -75.190491 875 255 143 -768
2018-11-13 16:30:49 GMT 39.878998 -75.184044 975 257 135 -768
2018-11-13 16:30:40 GMT 39.880512 -75.175842 1,100 255 139 -832
2018-11-13 16:30:23 GMT 39.883026 -75.163261 1,300 257 137 -576
2018-11-13 16:30:18 GMT 39.884003 -75.158386 1,375 255 139 -768
2018-11-13 16:30:07 GMT 39.885681 -75.150368 1,525 256 137 -640
2018-11-13 16:29:57 GMT 39.887356 -75.141541 1,625 256 140 -768
2018-11-13 16:29:43 GMT 39.889435 -75.130959 1,800 256 142 -832
2018-11-13 16:29:36 GMT 39.890751 -75.124512 1,925 256 142 -832
2018-11-13 16:29:25 GMT 39.892502 -75.115433 2,075 256 151 -896
2018-11-13 16:29:15 GMT 39.894382 -75.105835 2,225 256 158 -896
2018-11-13 16:28:49 GMT 39.899002 -75.082657 2,600 256 163 -960
2018-11-13 16:28:44 GMT 39.900009 -75.077644 2,675 256 167 -1024
2018-11-13 16:28:33 GMT 39.902020 -75.067383 2,875 256 164 -960
2018-11-13 16:28:22 GMT 39.904037 -75.057037 2,975 256 159 -256
2018-11-13 16:28:19 GMT 39.904625 -75.054016 2,975 256 159 0
2018-11-13 16:28:11 GMT 39.906097 -75.046654 3,025 256 158 0
2018-11-13 16:28:05 GMT 39.907185 -75.040894 3,000 257 159 0
2018-11-13 16:28:01 GMT 39.907791 -75.037811 3,000 256 159 0
2018-11-13 16:27:50 GMT 39.909977 -75.026550 3,025 256 160 -64
2018-11-13 16:27:44 GMT 39.910995 -75.021637 3,025 257 158 64
2018-11-13 16:27:40 GMT 39.911682 -75.018173 3,025 257 158 64
2018-11-13 16:27:33 GMT 39.912872 -75.011726 3,000 260 157 0
2018-11-13 16:27:30 GMT 39.913330 -75.008377 3,000 263 157 0
2018-11-13 16:27:24 GMT 39.913834 -75.002052 3,025 270 156 -64
2018-11-13 16:27:20 GMT 39.913891 -74.998535 3,025 271 156 -64
2018-11-13 16:27:13 GMT 39.913841 -74.992371 3,025 278 154 0
2018-11-13 16:27:09 GMT 39.913742 -74.988678 3,025 280 154 -64
2018-11-13 16:26:59 GMT 39.911224 -74.979179 3,025 315 151 0
2018-11-13 16:26:48 GMT 39.905594 -74.973686 3,000 350 159 64
2018-11-13 16:26:45 GMT 39.903488 -74.972916 3,000 353 160 0
2018-11-13 16:26:41 GMT 39.901134 -74.972412 3,000 354 161 -64
2018-11-13 16:26:38 GMT 39.897629 -74.971893 3,000 354 160 0
2018-11-13 16:26:34 GMT 39.895500 -74.971619 3,000 354 161 0
2018-11-13 16:26:30 GMT 39.892101 -74.971130 3,000 354 162 -64
2018-11-13 16:26:27 GMT 39.890240 -74.970825 3,000 354 162 -64
2018-11-13 16:26:24 GMT 39.888245 -74.970528 3,000 354 162 -64
2018-11-13 16:26:20 GMT 39.885498 -74.970108 3,025 353 162 -64
2018-11-13 16:26:16 GMT 39.881607 -74.969505 3,025 353 162 -64
2018-11-13 16:26:11 GMT 39.878128 -74.968910 3,025 354 162 -64
2018-11-13 16:26:05 GMT 39.873947 -74.968323 3,025 357 163 64
2018-11-13 16:25:56 GMT 39.866409 -74.968552 3,025 16 171 64
2018-11-13 16:25:49 GMT 39.861843 -74.970764 3,025 31 177 0
2018-11-13 16:25:44 GMT 39.858723 -74.973328 3,025 35 177 0
2018-11-13 16:25:40 GMT 39.855186 -74.976624 3,000 35 177 64
2018-11-13 16:25:33 GMT 39.851089 -74.980347 3,000 34 178 64
2018-11-13 16:25:29 GMT 39.848282 -74.982887 3,000 34 178 0
2018-11-13 16:25:22 GMT 39.843224 -74.987488 3,000 35 180 -128
2018-11-13 16:25:18 GMT 39.841080 -74.989441 3,025 35 181 -192
2018-11-13 16:25:08 GMT 39.833866 -74.996033 3,025 33 237 -896
2018-11-13 16:24:58 GMT 39.826447 -75.002769 3,025 34 198 128
2018-11-13 16:24:52 GMT 39.821548 -75.007126 3,000 34 209 64
2018-11-13 16:24:48 GMT 39.813171 -75.014587 3,000 33 219 128
2018-11-13 16:24:41 GMT 39.813171 -75.014587 3,000 33 216 128
2018-11-13 16:24:37 GMT 39.809891 -75.017456 3,000 33 221 128
2018-11-13 16:24:26 GMT 39.800674 -75.025391 3,000 33 230 -320
2018-11-13 16:24:15 GMT 39.790524 -75.034058 3,125 33 234 -768
2018-11-13 16:24:11 GMT 39.786102 -75.037903 3,400 33 236 -960
2018-11-13 16:24:08 GMT 39.784286 -75.039490 3,225 33 235 -960
2018-11-13 16:24:03 GMT 39.779587 -75.043518 3,400 33 236 -960
2018-11-13 16:23:56 GMT 39.772648 -75.049500 3,425 33 237 -960
2018-11-13 16:23:45 GMT 39.763107 -75.057739 3,600 33 238 -896
2018-11-13 16:23:34 GMT 39.753342 -75.066116 3,750 33 240 -896
2018-11-13 16:23:24 GMT 39.743927 -75.074097 3,900 33 243 -704
2018-11-13 16:23:17 GMT 39.737270 -75.079773 3,975 33 244 -128
2018-11-13 16:23:14 GMT 39.734024 -75.082535 4,000 33 243 -448
2018-11-13 16:23:04 GMT 39.724094 -75.091003 4,025 33 242 -64
2018-11-13 16:22:53 GMT 39.703335 -75.108765 4,025 33 242 -64
2018-11-13 16:22:41 GMT 39.703335 -75.108765 4,025 33 242 -64
2018-11-13 16:22:32 GMT 39.694767 -75.116089 4,025 33 242 -64
2018-11-13 16:22:21 GMT 39.684402 -75.124931 4,025 33 243 0
2018-11-13 16:22:18 GMT 39.681358 -75.127563 4,025 33 243 0
2018-11-13 16:22:10 GMT 39.674656 -75.133301 4,025 33 243 0
2018-11-13 16:22:04 GMT 39.667236 -75.139740 4,025 33 242 0
2018-11-13 16:21:59 GMT 39.663345 -75.143127 4,025 33 241 0
2018-11-13 16:21:45 GMT 39.651031 -75.153770 4,025 33 243 0
2018-11-13 16:21:40 GMT 39.646271 -75.157951 4,025 33 243 0
2018-11-13 16:21:25 GMT 39.631714 -75.170486 4,025 33 243 0
2018-11-13 16:21:13 GMT 39.620728 -75.179924 4,025 33 242 0
2018-11-13 16:21:05 GMT 39.613766 -75.185913 4,025 33 241 0
2018-11-13 16:21:02 GMT 39.610931 -75.188400 4,025 33 241 0
2018-11-13 16:20:54 GMT 39.603561 -75.194733 4,025 34 241 0
2018-11-13 16:20:15 GMT 39.566345 -75.227150 4,025 34 240 0
2018-11-13 16:20:08 GMT 39.560184 -75.232483 4,025 33 239 0
2018-11-13 16:19:16 GMT 39.512142 -75.274170 4,025 33 239 0
2018-11-13 16:19:07 GMT 39.502899 -75.282265 4,025 34 240 0
2018-11-13 16:17:31 GMT 39.421234 -75.367165 4,925 47 249 -960
2018-11-13 16:17:24 GMT 39.414570 -75.376465 5,075 47 251 -960
2018-11-13 16:17:11 GMT 39.405533 -75.389137 5,275 47 251 -1088
2018-11-13 16:17:02 GMT 39.398209 -75.399529 5,450 48 252 -1152
2018-11-13 16:16:51 GMT 39.389465 -75.412125 5,650 48 253 -960
2018-11-13 16:16:41 GMT 39.381226 -75.423355 5,775 34 248 -768
2018-11-13 16:16:30 GMT 39.370422 -75.431534 5,900 18 245 -704
2018-11-13 16:16:27 GMT 39.367584 -75.432724 5,975 15 250 -704
2018-11-13 16:16:19 GMT 39.359207 -75.435829 6,025 15 250 -704
2018-11-13 16:16:07 GMT 39.345749 -75.440727 6,175 15 253 -768
2018-11-13 16:15:58 GMT 39.333336 -75.445251 6,575 15 264 -512
2018-11-13 16:15:48 GMT 39.323227 -75.448967 6,375 15 264 -512
2018-11-13 16:15:39 GMT 39.312153 -75.452942 6,475 15 266 -832
2018-11-13 16:15:22 GMT 39.287621 -75.461609 6,825 15 272 -1216
2018-11-13 16:14:59 GMT 39.264542 -75.469864 7,225 11 270 -1216
2018-11-13 16:14:48 GMT 39.250763 -75.470459 7,300 354 261 -1216
2018-11-13 16:14:32 GMT 39.225494 -75.454338 7,800 201 240 -2304
2018-11-13 16:14:23 GMT 39.225494 -75.454338 7,950 314 236 -1088
2018-11-13 16:14:10 GMT 39.216476 -75.440071 8,000 299 243 -192
2018-11-13 16:14:03 GMT 39.212265 -75.429558 8,050 285 242 -640
2018-11-13 16:13:47 GMT 39.211460 -75.408813 8,225 263 235 -1216
2018-11-13 16:13:35 GMT 39.217026 -75.394157 8,500 239 227 -2240
2018-11-13 16:13:32 GMT 39.219269 -75.391052 8,825 217 232 -2432
2018-11-13 16:13:22 GMT 39.227848 -75.383728 9,700 190 248 -2240
2018-11-13 16:13:11 GMT 39.241058 -75.380478 9,700 181 260 -1792
2018-11-13 16:13:04 GMT 39.255707 -75.380241 9,725 181 267 -1600
2018-11-13 16:12:59 GMT 39.255707 -75.380241 10,025 181 268 -1600
2018-11-13 16:12:48 GMT 39.269257 -75.380241 10,250 179 274 -1728
2018-11-13 16:12:37 GMT 39.283340 -75.380432 10,850 179 283 -1984
2018-11-13 16:12:28 GMT 39.294250 -75.380661 11,100 179 290 -1664
2018-11-13 16:12:18 GMT 39.308010 -75.380737 11,200 180 295 -2176
2018-11-13 16:12:15 GMT 39.312332 -75.380722 11,325 181 299 -2240
2018-11-13 16:12:06 GMT 39.326431 -75.380722 11,750 179 302 -2880
2018-11-13 16:11:57 GMT 39.338882 -75.380783 12,175 179 305 -2496
2018-11-13 16:11:53 GMT 39.344696 -75.380836 12,325 179 307 -2432
2018-11-13 16:11:45 GMT 39.358978 -75.380959 12,825 179 318 -2432
2018-11-13 16:11:34 GMT 39.371063 -75.381142 13,025 180 320 -3200
2018-11-13 16:11:31 GMT 39.374817 -75.381195 13,200 179 322 -3072
2018-11-13 16:11:24 GMT 39.385612 -75.381165 13,575 181 323 -2944
2018-11-13 16:11:21 GMT 39.389603 -75.381142 13,725 181 321 -3072
2018-11-13 16:11:12 GMT 39.403629 -75.381104 14,425 179 318 -3456
2018-11-13 16:11:02 GMT 39.419037 -75.381104 14,800 181 312 -3456
2018-11-13 16:10:54 GMT 39.430664 -75.381020 15,250 179 308 -3072
2018-11-13 16:10:50 GMT 39.435005 -75.381042 15,400 179 308 -2176
2018-11-13 16:10:46 GMT 39.440643 -75.381081 15,475 179 315 4032
2018-11-13 16:10:43 GMT 39.445633 -75.381142 15,675 179 310 -1088
2018-11-13 16:10:39 GMT 39.450600 -75.381165 15,675 179 310 -1088
2018-11-13 16:10:33 GMT 39.461540 -75.381226 15,675 179 314 448
2018-11-13 16:10:29 GMT 39.465683 -75.381256 15,575 179 315 4544
2018-11-13 16:10:22 GMT 39.476257 -75.381256 15,550 181 321 832
2018-11-13 16:10:19 GMT 39.480766 -75.381226 15,525 181 320 1152
2018-11-13 16:10:08 GMT 39.496967 -75.381165 15,250 181 320 1664
2018-11-13 16:10:04 GMT 39.503902 -75.381104 15,075 181 319 2560
2018-11-13 16:09:59 GMT 39.509903 -75.381081 14,925 179 315 4032
2018-11-13 16:09:54 GMT 39.518646 -75.381081 14,675 179 315 4032
2018-11-13 16:09:51 GMT 39.522942 -75.381104 14,175 179 315 4032
2018-11-13 16:09:47 GMT 39.528442 -75.381081 14,200 179 315 4224
2018-11-13 16:09:41 GMT 39.536179 -75.381142 13,825 179 315 4416
2018-11-13 16:09:37 GMT 39.542683 -75.381165 13,650 179 316 4736
2018-11-13 16:09:33 GMT 39.547897 -75.381195 13,175 179 322 4416
2018-11-13 16:09:29 GMT 39.555019 -75.381226 12,800 179 322 4416
2018-11-13 16:09:23 GMT 39.562408 -75.381317 12,475 179 324 3200
2018-11-13 16:09:17 GMT 39.571636 -75.381470 12,075 179 319 64
2018-11-13 16:09:14 GMT 39.576431 -75.381531 12,125 179 323 1344
2018-11-13 16:09:09 GMT 39.585022 -75.381615 12,025 179 322 384
2018-11-13 16:09:04 GMT 39.591190 -75.381714 12,025 179 322 384
2018-11-13 16:08:58 GMT 39.599579 -75.381851 12,025 178 317 0
2018-11-13 16:08:55 GMT 39.604504 -75.381958 12,025 178 314 0
2018-11-13 16:08:46 GMT 39.633831 -75.382874 12,025 178 314 0
2018-11-13 16:08:36 GMT 39.646957 -75.383362 12,025 178 313 0
2018-11-13 16:08:26 GMT 39.646957 -75.383362 12,025 179 298 64
2018-11-13 16:08:16 GMT 39.661808 -75.383606 12,000 180 295 128
2018-11-13 16:08:05 GMT 39.676025 -75.383530 11,925 182 282 960
2018-11-13 16:07:54 GMT 39.690250 -75.383057 11,600 185 265 2496
2018-11-13 16:07:48 GMT 39.696671 -75.382751 11,375 184 267 2368
2018-11-13 16:07:44 GMT 39.702621 -75.382034 11,150 190 262 3136
2018-11-13 16:07:37 GMT 39.709896 -75.380371 10,800 191 262 3328
2018-11-13 16:07:34 GMT 39.715027 -75.378990 10,550 193 260 3648
2018-11-13 16:07:30 GMT 39.719147 -75.377853 10,325 194 258 3648
2018-11-13 16:07:23 GMT 39.727352 -75.375305 9,850 202 254 3776
2018-11-13 16:07:19 GMT 39.731461 -75.373672 9,650 202 254 3776
2018-11-13 16:07:14 GMT 39.737968 -75.370117 9,200 210 247 4032
2018-11-13 16:07:11 GMT 39.739655 -75.369019 9,150 209 248 3968
2018-11-13 16:07:05 GMT 39.746021 -75.364380 8,700 211 245 4736
2018-11-13 16:07:01 GMT 39.750092 -75.361313 8,350 211 246 5376
2018-11-13 16:06:52 GMT 39.760406 -75.353455 7,100 211 256 6272
2018-11-13 16:06:39 GMT 39.773804 -75.343163 6,125 211 264 5120
2018-11-13 16:06:33 GMT 39.779755 -75.338623 5,725 211 265 3712
2018-11-13 16:06:30 GMT 39.782410 -75.336594 5,600 211 261 3072
2018-11-13 16:06:23 GMT 39.790058 -75.330811 5,250 210 249 2944

Making use of Plane Finder data

You are free to use the raw flight data, aircraft information and images provided in this report for your own purposes provided the data is correctly attributed to Plane Finder. We ask that you please credit Plane Finder and link to planefinder.net in close proximity to the content.

Optionally one of the following logos (no smaller then 150x24px) can be used and must link to planefinder.net

Embedding the Plane Finder map

You are welcome to embed the Plane Finder playback map on your website to offer visitors a more interactive experience. We suggest using the following HTML code:

<iframe src="//planefinder.net/data/report/AA2665-N388AA-7700-squawk-2018-11-13/map" width="800" height="600" seamless="seamless"></iframe>

Where our data comes from

Plane Finder has a global network of data feeds and antenna radars that receive data broadcast directly from aircraft. The primary technologies used are ADS-B and MLAT. We also show feeds from the FAA and a FLARM glider feed.

Click here to find out more about the Plane Finder network.

How we collect our data